sensor_id;sensor_type;location;lat;lon;timestamp;P1;durP1;ratioP1;P2;durP2;ratioP2
61344;SDS011;47216;42.656;23.232;2022-08-19T00:01:48;4.83;;;4.00;;
61344;SDS011;47216;42.656;23.232;2022-08-19T00:04:17;8.57;;;4.78;;
61344;SDS011;47216;42.656;23.232;2022-08-19T00:06:46;7.83;;;4.03;;
61344;SDS011;47216;42.656;23.232;2022-08-19T00:09:16;7.43;;;4.30;;
61344;SDS011;47216;42.656;23.232;2022-08-19T00:11:44;6.00;;;4.00;;
61344;SDS011;47216;42.656;23.232;2022-08-19T00:14:12;9.67;;;4.60;;
61344;SDS011;47216;42.656;23.232;2022-08-19T00:16:42;6.00;;;4.33;;
61344;SDS011;47216;42.656;23.232;2022-08-19T00:19:11;4.60;;;4.10;;
61344;SDS011;47216;42.656;23.232;2022-08-19T00:21:38;4.93;;;4.30;;
61344;SDS011;47216;42.656;23.232;2022-08-19T00:24:05;6.97;;;4.13;;
61344;SDS011;47216;42.656;23.232;2022-08-19T00:26:35;5.17;;;4.10;;
61344;SDS011;47216;42.656;23.232;2022-08-19T00:29:02;7.23;;;4.50;;
61344;SDS011;47216;42.656;23.232;2022-08-19T00:31:31;5.47;;;4.10;;
61344;SDS011;47216;42.656;23.232;2022-08-19T00:33:58;9.40;;;4.00;;
61344;SDS011;47216;42.656;23.232;2022-08-19T00:36:25;6.40;;;4.43;;
61344;SDS011;47216;42.656;23.232;2022-08-19T00:38:53;5.27;;;4.33;;
61344;SDS011;47216;42.656;23.232;2022-08-19T00:41:22;6.10;;;4.10;;
61344;SDS011;47216;42.656;23.232;2022-08-19T00:43:59;5.93;;;4.67;;
61344;SDS011;47216;42.656;23.232;2022-08-19T00:46:28;4.80;;;4.20;;
61344;SDS011;47216;42.656;23.232;2022-08-19T00:48:55;5.43;;;4.30;;
61344;SDS011;47216;42.656;23.232;2022-08-19T00:51:23;6.77;;;4.70;;
61344;SDS011;47216;42.656;23.232;2022-08-19T00:53:52;5.27;;;4.27;;
61344;SDS011;47216;42.656;23.232;2022-08-19T00:56:20;9.23;;;4.97;;
61344;SDS011;47216;42.656;23.232;2022-08-19T00:58:47;4.20;;;3.80;;
61344;SDS011;47216;42.656;23.232;2022-08-19T01:01:15;5.33;;;4.17;;
61344;SDS011;47216;42.656;23.232;2022-08-19T01:03:42;6.03;;;4.27;;
61344;SDS011;47216;42.656;23.232;2022-08-19T01:06:09;4.73;;;4.23;;
61344;SDS011;47216;42.656;23.232;2022-08-19T01:08:36;6.70;;;4.40;;
61344;SDS011;47216;42.656;23.232;2022-08-19T01:11:03;4.60;;;4.10;;
61344;SDS011;47216;42.656;23.232;2022-08-19T01:13:32;6.77;;;4.60;;
61344;SDS011;47216;42.656;23.232;2022-08-19T01:16:00;6.73;;;4.57;;
61344;SDS011;47216;42.656;23.232;2022-08-19T01:18:31;5.87;;;4.63;;
61344;SDS011;47216;42.656;23.232;2022-08-19T01:21:02;4.97;;;4.30;;
61344;SDS011;47216;42.656;23.232;2022-08-19T01:23:35;6.07;;;4.43;;
61344;SDS011;47216;42.656;23.232;2022-08-19T01:26:13;5.13;;;4.63;;
61344;SDS011;47216;42.656;23.232;2022-08-19T01:28:44;6.33;;;4.00;;
61344;SDS011;47216;42.656;23.232;2022-08-19T01:31:13;7.00;;;4.47;;
61344;SDS011;47216;42.656;23.232;2022-08-19T01:33:42;4.77;;;4.27;;
61344;SDS011;47216;42.656;23.232;2022-08-19T01:36:10;5.40;;;4.33;;
61344;SDS011;47216;42.656;23.232;2022-08-19T01:38:40;4.90;;;4.43;;
61344;SDS011;47216;42.656;23.232;2022-08-19T01:41:10;6.20;;;4.20;;
61344;SDS011;47216;42.656;23.232;2022-08-19T01:43:37;5.80;;;4.47;;
61344;SDS011;47216;42.656;23.232;2022-08-19T01:46:04;6.90;;;4.03;;
61344;SDS011;47216;42.656;23.232;2022-08-19T01:48:35;5.70;;;4.77;;
61344;SDS011;47216;42.656;23.232;2022-08-19T01:51:02;6.73;;;4.77;;
61344;SDS011;47216;42.656;23.232;2022-08-19T01:53:29;5.53;;;4.27;;
61344;SDS011;47216;42.656;23.232;2022-08-19T01:56:00;6.97;;;4.60;;
61344;SDS011;47216;42.656;23.232;2022-08-19T01:58:29;7.30;;;4.17;;
61344;SDS011;47216;42.656;23.232;2022-08-19T02:01:01;7.97;;;4.17;;
61344;SDS011;47216;42.656;23.232;2022-08-19T02:03:29;5.30;;;3.93;;
61344;SDS011;47216;42.656;23.232;2022-08-19T02:05:56;4.40;;;4.00;;
61344;SDS011;47216;42.656;23.232;2022-08-19T02:08:27;5.17;;;4.17;;
61344;SDS011;47216;42.656;23.232;2022-08-19T02:10:55;5.30;;;4.63;;
61344;SDS011;47216;42.656;23.232;2022-08-19T02:13:24;4.90;;;4.27;;
61344;SDS011;47216;42.656;23.232;2022-08-19T02:15:52;5.10;;;4.57;;
61344;SDS011;47216;42.656;23.232;2022-08-19T02:18:19;5.50;;;4.40;;
61344;SDS011;47216;42.656;23.232;2022-08-19T02:20:46;6.17;;;4.40;;
61344;SDS011;47216;42.656;23.232;2022-08-19T02:23:14;5.40;;;4.17;;
61344;SDS011;47216;42.656;23.232;2022-08-19T02:25:42;7.63;;;4.23;;
61344;SDS011;47216;42.656;23.232;2022-08-19T02:28:09;5.47;;;4.20;;
61344;SDS011;47216;42.656;23.232;2022-08-19T02:30:40;4.80;;;4.27;;
61344;SDS011;47216;42.656;23.232;2022-08-19T02:33:08;4.80;;;4.40;;
61344;SDS011;47216;42.656;23.232;2022-08-19T02:35:35;6.37;;;4.30;;
61344;SDS011;47216;42.656;23.232;2022-08-19T02:38:02;4.80;;;4.30;;
61344;SDS011;47216;42.656;23.232;2022-08-19T02:40:48;5.20;;;4.20;;
61344;SDS011;47216;42.656;23.232;2022-08-19T02:43:16;5.83;;;4.33;;
61344;SDS011;47216;42.656;23.232;2022-08-19T02:45:46;5.93;;;4.20;;
61344;SDS011;47216;42.656;23.232;2022-08-19T02:48:14;4.73;;;4.17;;
61344;SDS011;47216;42.656;23.232;2022-08-19T02:50:43;6.77;;;4.43;;
61344;SDS011;47216;42.656;23.232;2022-08-19T02:53:10;5.17;;;4.23;;
61344;SDS011;47216;42.656;23.232;2022-08-19T02:55:42;7.33;;;5.73;;
61344;SDS011;47216;42.656;23.232;2022-08-19T02:58:10;8.10;;;4.03;;
61344;SDS011;47216;42.656;23.232;2022-08-19T03:00:41;4.83;;;4.33;;
61344;SDS011;47216;42.656;23.232;2022-08-19T03:03:11;4.57;;;4.10;;
61344;SDS011;47216;42.656;23.232;2022-08-19T03:05:38;6.67;;;3.97;;
61344;SDS011;47216;42.656;23.232;2022-08-19T03:08:05;5.60;;;4.40;;
61344;SDS011;47216;42.656;23.232;2022-08-19T03:10:32;4.70;;;4.00;;
61344;SDS011;47216;42.656;23.232;2022-08-19T03:12:59;4.87;;;4.27;;
61344;SDS011;47216;42.656;23.232;2022-08-19T03:15:26;4.90;;;4.40;;
61344;SDS011;47216;42.656;23.232;2022-08-19T03:17:53;5.80;;;4.03;;
61344;SDS011;47216;42.656;23.232;2022-08-19T03:20:21;6.93;;;4.70;;
61344;SDS011;47216;42.656;23.232;2022-08-19T03:22:48;6.77;;;4.37;;
61344;SDS011;47216;42.656;23.232;2022-08-19T03:25:15;4.57;;;3.93;;
61344;SDS011;47216;42.656;23.232;2022-08-19T03:27:42;6.60;;;4.23;;
61344;SDS011;47216;42.656;23.232;2022-08-19T03:30:09;6.13;;;4.70;;
61344;SDS011;47216;42.656;23.232;2022-08-19T03:32:37;5.93;;;4.43;;
61344;SDS011;47216;42.656;23.232;2022-08-19T03:35:04;5.30;;;4.27;;
61344;SDS011;47216;42.656;23.232;2022-08-19T03:37:33;9.30;;;4.27;;
61344;SDS011;47216;42.656;23.232;2022-08-19T03:40:00;7.67;;;4.40;;
61344;SDS011;47216;42.656;23.232;2022-08-19T03:42:28;5.80;;;4.77;;
61344;SDS011;47216;42.656;23.232;2022-08-19T03:44:55;8.60;;;4.80;;
61344;SDS011;47216;42.656;23.232;2022-08-19T03:47:23;7.73;;;4.70;;
61344;SDS011;47216;42.656;23.232;2022-08-19T03:49:50;6.07;;;4.10;;
61344;SDS011;47216;42.656;23.232;2022-08-19T03:52:17;5.37;;;3.90;;
61344;SDS011;47216;42.656;23.232;2022-08-19T03:54:45;4.83;;;4.23;;
61344;SDS011;47216;42.656;23.232;2022-08-19T03:57:12;5.63;;;4.50;;
61344;SDS011;47216;42.656;23.232;2022-08-19T03:59:39;6.33;;;4.43;;
61344;SDS011;47216;42.656;23.232;2022-08-19T04:02:07;6.10;;;4.57;;
61344;SDS011;47216;42.656;23.232;2022-08-19T04:04:36;6.30;;;4.00;;
61344;SDS011;47216;42.656;23.232;2022-08-19T04:07:04;5.20;;;3.93;;
61344;SDS011;47216;42.656;23.232;2022-08-19T04:09:32;8.97;;;4.60;;
61344;SDS011;47216;42.656;23.232;2022-08-19T04:12:03;5.67;;;4.30;;
61344;SDS011;47216;42.656;23.232;2022-08-19T04:14:31;5.20;;;3.93;;
61344;SDS011;47216;42.656;23.232;2022-08-19T04:16:59;10.17;;;4.63;;
61344;SDS011;47216;42.656;23.232;2022-08-19T04:19:29;5.67;;;4.40;;
61344;SDS011;47216;42.656;23.232;2022-08-19T04:21:57;7.90;;;4.47;;
61344;SDS011;47216;42.656;23.232;2022-08-19T04:24:24;4.93;;;4.43;;
61344;SDS011;47216;42.656;23.232;2022-08-19T04:26:51;7.70;;;4.33;;
61344;SDS011;47216;42.656;23.232;2022-08-19T04:29:21;5.13;;;4.07;;
61344;SDS011;47216;42.656;23.232;2022-08-19T04:31:50;5.57;;;4.23;;
61344;SDS011;47216;42.656;23.232;2022-08-19T04:34:19;4.93;;;4.43;;
61344;SDS011;47216;42.656;23.232;2022-08-19T04:36:48;5.00;;;3.80;;
61344;SDS011;47216;42.656;23.232;2022-08-19T04:39:17;5.23;;;4.30;;
61344;SDS011;47216;42.656;23.232;2022-08-19T04:41:47;6.17;;;4.00;;
61344;SDS011;47216;42.656;23.232;2022-08-19T04:44:33;8.63;;;3.97;;
61344;SDS011;47216;42.656;23.232;2022-08-19T04:47:02;5.83;;;4.13;;
61344;SDS011;47216;42.656;23.232;2022-08-19T04:49:31;4.97;;;3.97;;
61344;SDS011;47216;42.656;23.232;2022-08-19T04:51:58;11.10;;;4.77;;
61344;SDS011;47216;42.656;23.232;2022-08-19T04:54:25;8.00;;;4.53;;
61344;SDS011;47216;42.656;23.232;2022-08-19T04:56:52;9.43;;;4.30;;
61344;SDS011;47216;42.656;23.232;2022-08-19T04:59:20;6.40;;;4.03;;
61344;SDS011;47216;42.656;23.232;2022-08-19T05:01:48;6.43;;;4.30;;
61344;SDS011;47216;42.656;23.232;2022-08-19T05:04:16;7.30;;;4.23;;
61344;SDS011;47216;42.656;23.232;2022-08-19T05:06:45;5.97;;;3.85;;
61344;SDS011;47216;42.656;23.232;2022-08-19T05:09:17;7.37;;;3.97;;
61344;SDS011;47216;42.656;23.232;2022-08-19T05:11:46;6.00;;;3.95;;
61344;SDS011;47216;42.656;23.232;2022-08-19T05:14:15;5.85;;;3.88;;
61344;SDS011;47216;42.656;23.232;2022-08-19T05:16:42;4.97;;;4.20;;
61344;SDS011;47216;42.656;23.232;2022-08-19T05:19:10;4.65;;;3.83;;
61344;SDS011;47216;42.656;23.232;2022-08-19T05:21:55;5.18;;;4.30;;
61344;SDS011;47216;42.656;23.232;2022-08-19T05:24:39;6.60;;;4.10;;
61344;SDS011;47216;42.656;23.232;2022-08-19T05:27:06;7.65;;;4.20;;
61344;SDS011;47216;42.656;23.232;2022-08-19T05:29:33;4.95;;;3.95;;
61344;SDS011;47216;42.656;23.232;2022-08-19T05:32:01;7.72;;;4.45;;
61344;SDS011;47216;42.656;23.232;2022-08-19T05:34:35;6.70;;;4.30;;
61344;SDS011;47216;42.656;23.232;2022-08-19T05:37:04;6.05;;;4.63;;
61344;SDS011;47216;42.656;23.232;2022-08-19T05:39:33;7.32;;;4.45;;
61344;SDS011;47216;42.656;23.232;2022-08-19T05:42:03;6.35;;;3.97;;
61344;SDS011;47216;42.656;23.232;2022-08-19T05:44:32;5.78;;;3.80;;
61344;SDS011;47216;42.656;23.232;2022-08-19T05:47:02;6.40;;;3.95;;
61344;SDS011;47216;42.656;23.232;2022-08-19T05:49:31;7.53;;;4.45;;
61344;SDS011;47216;42.656;23.232;2022-08-19T05:52:02;8.88;;;4.78;;
61344;SDS011;47216;42.656;23.232;2022-08-19T05:54:30;9.02;;;4.80;;
61344;SDS011;47216;42.656;23.232;2022-08-19T05:56:57;7.82;;;5.25;;
61344;SDS011;47216;42.656;23.232;2022-08-19T05:59:24;8.43;;;5.10;;
61344;SDS011;47216;42.656;23.232;2022-08-19T06:01:53;12.32;;;5.90;;
61344;SDS011;47216;42.656;23.232;2022-08-19T06:04:22;13.13;;;5.45;;
61344;SDS011;47216;42.656;23.232;2022-08-19T06:06:51;7.18;;;5.28;;
61344;SDS011;47216;42.656;23.232;2022-08-19T06:09:21;7.50;;;5.38;;
61344;SDS011;47216;42.656;23.232;2022-08-19T06:11:49;8.48;;;5.43;;
61344;SDS011;47216;42.656;23.232;2022-08-19T06:14:19;11.68;;;5.38;;
61344;SDS011;47216;42.656;23.232;2022-08-19T06:16:47;12.35;;;6.10;;
61344;SDS011;47216;42.656;23.232;2022-08-19T06:19:16;9.68;;;6.30;;
61344;SDS011;47216;42.656;23.232;2022-08-19T06:21:45;13.00;;;6.20;;
61344;SDS011;47216;42.656;23.232;2022-08-19T06:24:14;16.17;;;6.10;;
61344;SDS011;47216;42.656;23.232;2022-08-19T06:26:45;20.17;;;6.22;;
61344;SDS011;47216;42.656;23.232;2022-08-19T06:29:14;14.15;;;6.18;;
61344;SDS011;47216;42.656;23.232;2022-08-19T06:31:42;11.43;;;6.18;;
61344;SDS011;47216;42.656;23.232;2022-08-19T06:34:10;10.82;;;6.07;;
61344;SDS011;47216;42.656;23.232;2022-08-19T06:36:39;11.70;;;6.53;;
61344;SDS011;47216;42.656;23.232;2022-08-19T06:39:09;11.65;;;5.97;;
61344;SDS011;47216;42.656;23.232;2022-08-19T06:41:38;16.27;;;7.03;;
61344;SDS011;47216;42.656;23.232;2022-08-19T06:44:09;17.05;;;7.22;;
61344;SDS011;47216;42.656;23.232;2022-08-19T06:46:36;11.23;;;6.97;;
61344;SDS011;47216;42.656;23.232;2022-08-19T06:49:04;15.88;;;7.00;;
61344;SDS011;47216;42.656;23.232;2022-08-19T06:51:31;10.88;;;6.68;;
61344;SDS011;47216;42.656;23.232;2022-08-19T06:53:59;17.27;;;7.25;;
61344;SDS011;47216;42.656;23.232;2022-08-19T06:56:28;10.60;;;7.13;;
61344;SDS011;47216;42.656;23.232;2022-08-19T06:58:58;11.77;;;6.38;;
61344;SDS011;47216;42.656;23.232;2022-08-19T07:01:27;13.60;;;7.30;;
61344;SDS011;47216;42.656;23.232;2022-08-19T07:03:54;11.88;;;7.45;;
61344;SDS011;47216;42.656;23.232;2022-08-19T07:06:21;16.65;;;7.80;;
61344;SDS011;47216;42.656;23.232;2022-08-19T07:08:48;13.73;;;7.25;;
61344;SDS011;47216;42.656;23.232;2022-08-19T07:11:17;14.77;;;7.13;;
61344;SDS011;47216;42.656;23.232;2022-08-19T07:13:45;18.02;;;7.22;;
61344;SDS011;47216;42.656;23.232;2022-08-19T07:16:14;19.00;;;7.60;;
61344;SDS011;47216;42.656;23.232;2022-08-19T07:18:45;17.95;;;7.57;;
61344;SDS011;47216;42.656;23.232;2022-08-19T07:21:14;14.35;;;7.32;;
61344;SDS011;47216;42.656;23.232;2022-08-19T07:23:42;10.63;;;6.75;;
61344;SDS011;47216;42.656;23.232;2022-08-19T07:26:10;18.75;;;7.10;;
61344;SDS011;47216;42.656;23.232;2022-08-19T07:28:39;14.27;;;6.28;;
61344;SDS011;47216;42.656;23.232;2022-08-19T07:31:09;9.23;;;6.72;;
61344;SDS011;47216;42.656;23.232;2022-08-19T07:33:37;9.73;;;6.35;;
61344;SDS011;47216;42.656;23.232;2022-08-19T07:36:09;13.73;;;6.63;;
61344;SDS011;47216;42.656;23.232;2022-08-19T07:38:38;16.42;;;6.75;;
61344;SDS011;47216;42.656;23.232;2022-08-19T07:41:06;14.15;;;7.00;;
61344;SDS011;47216;42.656;23.232;2022-08-19T07:43:34;10.50;;;6.45;;
61344;SDS011;47216;42.656;23.232;2022-08-19T07:46:01;11.60;;;6.15;;
61344;SDS011;47216;42.656;23.232;2022-08-19T07:48:29;14.65;;;6.50;;
61344;SDS011;47216;42.656;23.232;2022-08-19T07:50:57;22.23;;;6.68;;
61344;SDS011;47216;42.656;23.232;2022-08-19T07:53:29;13.65;;;6.43;;
61344;SDS011;47216;42.656;23.232;2022-08-19T07:55:57;11.60;;;6.35;;
61344;SDS011;47216;42.656;23.232;2022-08-19T07:58:29;12.15;;;6.18;;
61344;SDS011;47216;42.656;23.232;2022-08-19T08:00:58;17.88;;;6.15;;
61344;SDS011;47216;42.656;23.232;2022-08-19T08:03:26;9.32;;;5.78;;
61344;SDS011;47216;42.656;23.232;2022-08-19T08:06:08;18.25;;;6.30;;
61344;SDS011;47216;42.656;23.232;2022-08-19T08:08:54;14.60;;;6.75;;
61344;SDS011;47216;42.656;23.232;2022-08-19T08:11:47;12.27;;;6.05;;
61344;SDS011;47216;42.656;23.232;2022-08-19T08:14:16;7.50;;;4.75;;
61344;SDS011;47216;42.656;23.232;2022-08-19T08:16:45;10.57;;;5.07;;
61344;SDS011;47216;42.656;23.232;2022-08-19T08:19:12;12.10;;;5.00;;
61344;SDS011;47216;42.656;23.232;2022-08-19T08:21:41;7.90;;;4.82;;
61344;SDS011;47216;42.656;23.232;2022-08-19T08:24:10;8.63;;;4.90;;
61344;SDS011;47216;42.656;23.232;2022-08-19T08:26:38;4.95;;;4.35;;
61344;SDS011;47216;42.656;23.232;2022-08-19T08:29:05;10.27;;;4.63;;
61344;SDS011;47216;42.656;23.232;2022-08-19T08:31:38;5.05;;;4.30;;
61344;SDS011;47216;42.656;23.232;2022-08-19T08:34:05;5.47;;;3.80;;
61344;SDS011;47216;42.656;23.232;2022-08-19T08:36:35;6.07;;;3.75;;
61344;SDS011;47216;42.656;23.232;2022-08-19T08:39:06;5.85;;;4.72;;
61344;SDS011;47216;42.656;23.232;2022-08-19T08:41:37;6.80;;;4.10;;
61344;SDS011;47216;42.656;23.232;2022-08-19T08:44:13;7.50;;;4.45;;
61344;SDS011;47216;42.656;23.232;2022-08-19T08:46:45;5.88;;;3.75;;
61344;SDS011;47216;42.656;23.232;2022-08-19T08:49:20;8.18;;;4.32;;
61344;SDS011;47216;42.656;23.232;2022-08-19T08:52:02;9.23;;;4.40;;
61344;SDS011;47216;42.656;23.232;2022-08-19T08:54:32;5.97;;;4.25;;
61344;SDS011;47216;42.656;23.232;2022-08-19T08:57:04;6.53;;;3.78;;
61344;SDS011;47216;42.656;23.232;2022-08-19T08:59:37;5.90;;;4.32;;
61344;SDS011;47216;42.656;23.232;2022-08-19T09:02:08;6.05;;;3.88;;
61344;SDS011;47216;42.656;23.232;2022-08-19T09:04:35;6.80;;;3.92;;
61344;SDS011;47216;42.656;23.232;2022-08-19T09:07:09;7.20;;;3.70;;
61344;SDS011;47216;42.656;23.232;2022-08-19T09:09:48;11.40;;;3.97;;
61344;SDS011;47216;42.656;23.232;2022-08-19T09:12:20;4.82;;;3.80;;
61344;SDS011;47216;42.656;23.232;2022-08-19T09:14:53;4.10;;;3.70;;
61344;SDS011;47216;42.656;23.232;2022-08-19T09:17:25;7.93;;;3.97;;
61344;SDS011;47216;42.656;23.232;2022-08-19T09:19:58;5.80;;;4.40;;
61344;SDS011;47216;42.656;23.232;2022-08-19T09:22:30;8.90;;;3.95;;
61344;SDS011;47216;42.656;23.232;2022-08-19T09:24:57;9.00;;;3.97;;
61344;SDS011;47216;42.656;23.232;2022-08-19T09:27:26;6.97;;;3.70;;
61344;SDS011;47216;42.656;23.232;2022-08-19T09:29:54;11.32;;;3.80;;
61344;SDS011;47216;42.656;23.232;2022-08-19T09:32:21;7.65;;;3.38;;
61344;SDS011;47216;42.656;23.232;2022-08-19T09:34:49;8.93;;;3.38;;
61344;SDS011;47216;42.656;23.232;2022-08-19T09:37:19;9.48;;;3.60;;
61344;SDS011;47216;42.656;23.232;2022-08-19T09:39:46;5.88;;;3.60;;
61344;SDS011;47216;42.656;23.232;2022-08-19T09:42:13;4.20;;;3.55;;
61344;SDS011;47216;42.656;23.232;2022-08-19T09:44:41;4.30;;;3.10;;
61344;SDS011;47216;42.656;23.232;2022-08-19T09:47:09;7.78;;;3.70;;
61344;SDS011;47216;42.656;23.232;2022-08-19T09:49:38;6.07;;;3.55;;
61344;SDS011;47216;42.656;23.232;2022-08-19T09:52:05;5.13;;;3.80;;
61344;SDS011;47216;42.656;23.232;2022-08-19T09:54:32;4.82;;;3.38;;
61344;SDS011;47216;42.656;23.232;2022-08-19T09:56:59;12.32;;;4.32;;
61344;SDS011;47216;42.656;23.232;2022-08-19T09:59:27;10.75;;;4.85;;
61344;SDS011;47216;42.656;23.232;2022-08-19T10:01:56;13.35;;;6.32;;
61344;SDS011;47216;42.656;23.232;2022-08-19T10:04:23;15.65;;;9.15;;
61344;SDS011;47216;42.656;23.232;2022-08-19T10:07:11;12.82;;;4.15;;
61344;SDS011;47216;42.656;23.232;2022-08-19T10:09:38;5.03;;;3.55;;
61344;SDS011;47216;42.656;23.232;2022-08-19T10:12:06;3.95;;;3.35;;
61344;SDS011;47216;42.656;23.232;2022-08-19T10:14:34;4.72;;;3.20;;
61344;SDS011;47216;42.656;23.232;2022-08-19T10:17:02;7.22;;;3.58;;
61344;SDS011;47216;42.656;23.232;2022-08-19T10:19:29;7.63;;;3.15;;
61344;SDS011;47216;42.656;23.232;2022-08-19T10:22:02;4.47;;;3.03;;
61344;SDS011;47216;42.656;23.232;2022-08-19T10:24:29;5.45;;;2.90;;
61344;SDS011;47216;42.656;23.232;2022-08-19T10:26:57;4.88;;;3.10;;
61344;SDS011;47216;42.656;23.232;2022-08-19T10:29:24;7.43;;;3.10;;
61344;SDS011;47216;42.656;23.232;2022-08-19T10:31:53;5.00;;;3.40;;
61344;SDS011;47216;42.656;23.232;2022-08-19T10:34:22;4.82;;;3.65;;
61344;SDS011;47216;42.656;23.232;2022-08-19T10:36:49;4.95;;;3.63;;
61344;SDS011;47216;42.656;23.232;2022-08-19T10:39:16;5.55;;;3.78;;
61344;SDS011;47216;42.656;23.232;2022-08-19T10:41:45;6.53;;;4.00;;
61344;SDS011;47216;42.656;23.232;2022-08-19T10:44:14;5.75;;;3.28;;
61344;SDS011;47216;42.656;23.232;2022-08-19T10:46:43;9.23;;;3.75;;
61344;SDS011;47216;42.656;23.232;2022-08-19T10:49:12;3.92;;;3.58;;
61344;SDS011;47216;42.656;23.232;2022-08-19T10:51:41;4.05;;;3.60;;
61344;SDS011;47216;42.656;23.232;2022-08-19T10:54:26;6.05;;;3.85;;
61344;SDS011;47216;42.656;23.232;2022-08-19T10:57:13;7.05;;;4.00;;
61344;SDS011;47216;42.656;23.232;2022-08-19T10:59:39;10.88;;;4.05;;
61344;SDS011;47216;42.656;23.232;2022-08-19T11:02:07;7.30;;;3.55;;
61344;SDS011;47216;42.656;23.232;2022-08-19T11:04:35;6.22;;;3.45;;
61344;SDS011;47216;42.656;23.232;2022-08-19T11:07:04;7.15;;;4.28;;
61344;SDS011;47216;42.656;23.232;2022-08-19T11:09:36;4.88;;;4.00;;
61344;SDS011;47216;42.656;23.232;2022-08-19T11:12:05;11.40;;;4.32;;
61344;SDS011;47216;42.656;23.232;2022-08-19T11:14:33;5.10;;;3.40;;
61344;SDS011;47216;42.656;23.232;2022-08-19T11:17:00;7.47;;;3.53;;
61344;SDS011;47216;42.656;23.232;2022-08-19T11:19:28;9.63;;;3.80;;
61344;SDS011;47216;42.656;23.232;2022-08-19T11:21:55;6.88;;;3.75;;
61344;SDS011;47216;42.656;23.232;2022-08-19T11:24:24;7.65;;;4.25;;
61344;SDS011;47216;42.656;23.232;2022-08-19T11:26:53;12.48;;;4.18;;
61344;SDS011;47216;42.656;23.232;2022-08-19T11:29:24;6.35;;;3.70;;
61344;SDS011;47216;42.656;23.232;2022-08-19T11:31:53;10.98;;;4.00;;
61344;SDS011;47216;42.656;23.232;2022-08-19T11:34:21;7.60;;;4.20;;
61344;SDS011;47216;42.656;23.232;2022-08-19T11:36:52;4.82;;;3.80;;
61344;SDS011;47216;42.656;23.232;2022-08-19T11:39:25;6.45;;;3.70;;
61344;SDS011;47216;42.656;23.232;2022-08-19T11:41:53;5.50;;;3.80;;
61344;SDS011;47216;42.656;23.232;2022-08-19T11:44:20;8.07;;;3.72;;
61344;SDS011;47216;42.656;23.232;2022-08-19T11:46:47;11.70;;;3.67;;
61344;SDS011;47216;42.656;23.232;2022-08-19T11:49:14;5.65;;;3.88;;
61344;SDS011;47216;42.656;23.232;2022-08-19T11:51:43;8.25;;;3.78;;
61344;SDS011;47216;42.656;23.232;2022-08-19T11:54:11;9.50;;;5.15;;
61344;SDS011;47216;42.656;23.232;2022-08-19T11:56:41;4.57;;;3.72;;
61344;SDS011;47216;42.656;23.232;2022-08-19T11:59:08;7.20;;;3.90;;
61344;SDS011;47216;42.656;23.232;2022-08-19T12:01:35;7.57;;;3.80;;
61344;SDS011;47216;42.656;23.232;2022-08-19T12:04:02;5.05;;;4.20;;
61344;SDS011;47216;42.656;23.232;2022-08-19T12:06:31;7.03;;;3.88;;
61344;SDS011;47216;42.656;23.232;2022-08-19T12:09:00;8.73;;;4.18;;
61344;SDS011;47216;42.656;23.232;2022-08-19T12:11:29;22.60;;;4.75;;
61344;SDS011;47216;42.656;23.232;2022-08-19T12:13:57;5.13;;;3.40;;
61344;SDS011;47216;42.656;23.232;2022-08-19T12:16:24;5.90;;;3.60;;
61344;SDS011;47216;42.656;23.232;2022-08-19T12:18:53;5.30;;;3.70;;
61344;SDS011;47216;42.656;23.232;2022-08-19T12:21:22;9.07;;;3.65;;
61344;SDS011;47216;42.656;23.232;2022-08-19T12:23:53;3.97;;;3.40;;
61344;SDS011;47216;42.656;23.232;2022-08-19T12:26:21;5.97;;;3.72;;
61344;SDS011;47216;42.656;23.232;2022-08-19T12:28:48;5.25;;;3.75;;
61344;SDS011;47216;42.656;23.232;2022-08-19T12:31:16;4.80;;;3.80;;
61344;SDS011;47216;42.656;23.232;2022-08-19T12:33:44;6.47;;;3.72;;
61344;SDS011;47216;42.656;23.232;2022-08-19T12:36:12;6.47;;;4.00;;
61344;SDS011;47216;42.656;23.232;2022-08-19T12:38:42;5.05;;;3.53;;
61344;SDS011;47216;42.656;23.232;2022-08-19T12:41:11;4.72;;;3.88;;
61344;SDS011;47216;42.656;23.232;2022-08-19T12:43:39;9.02;;;4.30;;
61344;SDS011;47216;42.656;23.232;2022-08-19T12:46:06;5.47;;;3.70;;
61344;SDS011;47216;42.656;23.232;2022-08-19T12:48:35;6.85;;;4.15;;
61344;SDS011;47216;42.656;23.232;2022-08-19T12:51:06;6.80;;;3.85;;
61344;SDS011;47216;42.656;23.232;2022-08-19T12:53:34;6.20;;;3.92;;
61344;SDS011;47216;42.656;23.232;2022-08-19T12:56:01;6.95;;;3.70;;
61344;SDS011;47216;42.656;23.232;2022-08-19T12:58:28;9.82;;;4.18;;
61344;SDS011;47216;42.656;23.232;2022-08-19T13:00:55;6.55;;;3.78;;
61344;SDS011;47216;42.656;23.232;2022-08-19T13:03:22;9.02;;;3.85;;
61344;SDS011;47216;42.656;23.232;2022-08-19T13:05:55;10.18;;;4.43;;
61344;SDS011;47216;42.656;23.232;2022-08-19T13:08:22;7.32;;;3.75;;
61344;SDS011;47216;42.656;23.232;2022-08-19T13:10:49;8.00;;;3.97;;
61344;SDS011;47216;42.656;23.232;2022-08-19T13:13:16;6.97;;;4.32;;
61344;SDS011;47216;42.656;23.232;2022-08-19T13:15:43;5.82;;;3.53;;
61344;SDS011;47216;42.656;23.232;2022-08-19T13:18:10;4.85;;;3.38;;
61344;SDS011;47216;42.656;23.232;2022-08-19T13:20:39;8.98;;;4.22;;
61344;SDS011;47216;42.656;23.232;2022-08-19T13:23:08;3.47;;;3.13;;
61344;SDS011;47216;42.656;23.232;2022-08-19T13:25:35;6.95;;;3.80;;
61344;SDS011;47216;42.656;23.232;2022-08-19T13:28:02;8.65;;;3.80;;
61344;SDS011;47216;42.656;23.232;2022-08-19T13:30:31;8.32;;;3.72;;
61344;SDS011;47216;42.656;23.232;2022-08-19T13:33:15;7.47;;;3.42;;
61344;SDS011;47216;42.656;23.232;2022-08-19T13:35:44;6.60;;;3.65;;
61344;SDS011;47216;42.656;23.232;2022-08-19T13:38:14;9.38;;;3.88;;
61344;SDS011;47216;42.656;23.232;2022-08-19T13:40:43;4.93;;;3.55;;
61344;SDS011;47216;42.656;23.232;2022-08-19T13:43:11;4.25;;;3.22;;
61344;SDS011;47216;42.656;23.232;2022-08-19T13:45:38;10.07;;;3.80;;
61344;SDS011;47216;42.656;23.232;2022-08-19T13:48:06;3.70;;;3.40;;
61344;SDS011;47216;42.656;23.232;2022-08-19T13:50:35;4.15;;;3.65;;
61344;SDS011;47216;42.656;23.232;2022-08-19T13:53:07;6.63;;;3.83;;
61344;SDS011;47216;42.656;23.232;2022-08-19T13:55:36;4.60;;;3.72;;
61344;SDS011;47216;42.656;23.232;2022-08-19T13:58:03;7.22;;;3.65;;
61344;SDS011;47216;42.656;23.232;2022-08-19T14:00:32;7.50;;;4.20;;
61344;SDS011;47216;42.656;23.232;2022-08-19T14:03:00;5.60;;;3.65;;
61344;SDS011;47216;42.656;23.232;2022-08-19T14:05:27;6.63;;;3.72;;
61344;SDS011;47216;42.656;23.232;2022-08-19T14:07:55;6.15;;;3.65;;
61344;SDS011;47216;42.656;23.232;2022-08-19T14:10:23;7.75;;;3.90;;
61344;SDS011;47216;42.656;23.232;2022-08-19T14:12:53;4.68;;;3.35;;
61344;SDS011;47216;42.656;23.232;2022-08-19T14:15:20;7.25;;;3.80;;
61344;SDS011;47216;42.656;23.232;2022-08-19T14:17:49;8.07;;;3.50;;
61344;SDS011;47216;42.656;23.232;2022-08-19T14:20:16;6.10;;;4.00;;
61344;SDS011;47216;42.656;23.232;2022-08-19T14:22:43;5.00;;;3.53;;
61344;SDS011;47216;42.656;23.232;2022-08-19T14:25:13;6.38;;;4.57;;
61344;SDS011;47216;42.656;23.232;2022-08-19T14:27:42;8.73;;;4.18;;
61344;SDS011;47216;42.656;23.232;2022-08-19T14:30:11;6.15;;;3.78;;
61344;SDS011;47216;42.656;23.232;2022-08-19T14:32:40;10.07;;;3.95;;
61344;SDS011;47216;42.656;23.232;2022-08-19T14:35:08;8.57;;;3.72;;
61344;SDS011;47216;42.656;23.232;2022-08-19T14:37:37;6.18;;;3.80;;
61344;SDS011;47216;42.656;23.232;2022-08-19T14:40:04;7.68;;;4.07;;
61344;SDS011;47216;42.656;23.232;2022-08-19T14:42:33;5.60;;;3.65;;